Rylan Jade — WDI4904 — position and weather

sailwx.info

Track history (hours):
 
Tides and Currents Weather Stations Pressure Air Temp Water Temp Dewpoint Dewpoint Depression Visibility Wind Speed Wind Dir Waves Ship Positions

Rylan Jade

Owner: Marine Express, Inc. - Rylan Jade, Walnut Creek, CA. More information available from US FCC via Universal Licensing System and Coast Guard Vessel Documentation Center.

Last reported at 2017-Oct-15 21:58 UTC. Time now 2017-Oct-17 11:40 UTC.
Position N 33°46' W 118°13'.

; draft 1 m.

Type: Port tender. MMSI: 367067090.

Date/timePositionNaut miles runAvg speedWind from/ knotsBaromVisibWave heightAir tempDewpointWater temp
2017-Oct-15 21:58N 33°46' W 118°13'3 7.7
2017-Oct-15 21:30N 33°43' W 118°11'2 3.4
2017-Oct-15 21:00N 33°42' W 118°13'2 3.5
2017-Oct-15 20:29N 33°44' W 118°14'3 5.4
2017-Oct-15 20:00N 33°46' W 118°13'0 0.0
2017-Oct-15 18:26N 33°46' W 118°13'2 4.8
2017-Oct-15 18:00N 33°44' W 118°12'2 4.7
2017-Oct-15 17:31N 33°42' W 118°13'0 0.1
2017-Oct-15 16:56N 33°42' W 118°13'1 2.7
2017-Oct-15 16:30N 33°42' W 118°12'1 2.4
2017-Oct-15 16:00N 33°42' W 118°13'3 6.0
2017-Oct-15 15:30N 33°45' W 118°13'1 2.7
2017-Oct-15 15:00N 33°46' W 118°13'0 0.0
2017-Oct-14 17:00N 33°46' W 118°13'5 9.3
2017-Oct-14 16:28N 33°42' W 118°09'3 5.5
2017-Oct-14 16:00N 33°41' W 118°07'510.4
2017-Oct-14 15:30N 33°44' W 118°12'3 4.8
2017-Oct-14 14:58N 33°46' W 118°13'  
2017-Oct-10 21:39N 33°46' W 118°13'0 3.4
2017-Oct-10 21:31N 33°46' W 118°13'4 7.8
2017-Oct-10 21:00N 33°44' W 118°09'3 5.3
2017-Oct-10 20:30N 33°41' W 118°09'3 6.6
2017-Oct-10 20:00N 33°44' W 118°12'3 5.4
2017-Oct-10 19:29N 33°46' W 118°13'0 0.0
2017-Oct-10 19:00N 33°46' W 118°13'0 0.0
2017-Oct-10 18:30N 33°46' W 118°13'0 0.0
2017-Oct-10 18:00N 33°46' W 118°13'1 1.2
2017-Oct-10 17:30N 33°46' W 118°13'5 9.3
2017-Oct-10 17:01N 33°42' W 118°10'1 2.3
2017-Oct-10 16:30N 33°41' W 118°09'3 6.3
2017-Oct-10 16:00N 33°43' W 118°11'3 6.0
2017-Oct-10 15:30N 33°46' W 118°13'0 0.0
2017-Oct-10 07:06N 33°46' W 118°13'0 5.2
2017-Oct-10 07:00N 33°46' W 118°13'510.3
2017-Oct-10 06:31N 33°42' W 118°09'2 2.8
2017-Oct-10 05:57N 33°43' W 118°11'4 9.2
2017-Oct-10 05:30N 33°46' W 118°13'  
2017-Oct-07 19:09N 33°45' W 118°13'1 7.5
2017-Oct-07 19:00N 33°44' W 118°13'2 3.9
2017-Oct-07 18:30N 33°46' W 118°13'0 0.0
2017-Oct-06 19:50N 33°46' W 118°13'1 3.9
2017-Oct-06 19:30N 33°45' W 118°13'3 5.4
2017-Oct-06 19:00N 33°44' W 118°16'2 3.0
2017-Oct-06 18:12N 33°44' W 118°13'1 5.5
2017-Oct-06 18:00N 33°45' W 118°13'1 0.2
2017-Oct-06 10:40N 33°46' W 118°13'1 4.9
2017-Oct-06 10:30N 33°45' W 118°13'3 5.5
2017-Oct-06 10:00N 33°44' W 118°10'0 0.1
2017-Oct-06 09:30N 33°44' W 118°10'0 0.0
2017-Oct-06 08:56N 33°44' W 118°10'2 5.5
2017-Oct-06 08:28N 33°45' W 118°13'1 0.2
2017-Oct-06 02:13N 33°46' W 118°13'2 6.0
2017-Oct-06 01:50N 33°44' W 118°12'0 1.1
2017-Oct-06 01:30N 33°44' W 118°13'2 3.7
2017-Oct-06 00:59N 33°46' W 118°13'  
Track history (hours):
 
Tides and Currents Weather Stations Pressure Air Temp Water Temp Dewpoint Dewpoint Depression Visibility Wind Speed Wind Dir Waves Ship Positions

Rylan Jade

Owner: Marine Express, Inc. - Rylan Jade, Walnut Creek, CA. More information available from US FCC via Universal Licensing System and Coast Guard Vessel Documentation Center.

Last reported at 2017-Oct-15 21:58 UTC. Time now 2017-Oct-17 11:40 UTC.
Position N 33°46' W 118°13'.

; draft 1 m.

Type: Port tender. MMSI: 367067090.

Date/timePositionNaut miles runAvg speedWind from/ knotsBaromVisibWave heightAir tempDewpointWater temp
2017-Oct-15 21:58N 33°46' W 118°13'3 7.7
2017-Oct-15 21:30N 33°43' W 118°11'2 3.4
2017-Oct-15 21:00N 33°42' W 118°13'2 3.5
2017-Oct-15 20:29N 33°44' W 118°14'3 5.4
2017-Oct-15 20:00N 33°46' W 118°13'0 0.0
2017-Oct-15 18:26N 33°46' W 118°13'2 4.8
2017-Oct-15 18:00N 33°44' W 118°12'2 4.7
2017-Oct-15 17:31N 33°42' W 118°13'0 0.1
2017-Oct-15 16:56N 33°42' W 118°13'1 2.7
2017-Oct-15 16:30N 33°42' W 118°12'1 2.4
2017-Oct-15 16:00N 33°42' W 118°13'3 6.0
2017-Oct-15 15:30N 33°45' W 118°13'1 2.7
2017-Oct-15 15:00N 33°46' W 118°13'0 0.0
2017-Oct-14 17:00N 33°46' W 118°13'5 9.3
2017-Oct-14 16:28N 33°42' W 118°09'3 5.5
2017-Oct-14 16:00N 33°41' W 118°07'510.4
2017-Oct-14 15:30N 33°44' W 118°12'3 4.8
2017-Oct-14 14:58N 33°46' W 118°13'  
2017-Oct-10 21:39N 33°46' W 118°13'0 3.4
2017-Oct-10 21:31N 33°46' W 118°13'4 7.8
2017-Oct-10 21:00N 33°44' W 118°09'3 5.3
2017-Oct-10 20:30N 33°41' W 118°09'3 6.6
2017-Oct-10 20:00N 33°44' W 118°12'3 5.4
2017-Oct-10 19:29N 33°46' W 118°13'0 0.0
2017-Oct-10 19:00N 33°46' W 118°13'0 0.0
2017-Oct-10 18:30N 33°46' W 118°13'0 0.0
2017-Oct-10 18:00N 33°46' W 118°13'1 1.2
2017-Oct-10 17:30N 33°46' W 118°13'5 9.3
2017-Oct-10 17:01N 33°42' W 118°10'1 2.3
2017-Oct-10 16:30N 33°41' W 118°09'3 6.3
2017-Oct-10 16:00N 33°43' W 118°11'3 6.0
2017-Oct-10 15:30N 33°46' W 118°13'0 0.0
2017-Oct-10 07:06N 33°46' W 118°13'0 5.2
2017-Oct-10 07:00N 33°46' W 118°13'510.3
2017-Oct-10 06:31N 33°42' W 118°09'2 2.8
2017-Oct-10 05:57N 33°43' W 118°11'4 9.2
2017-Oct-10 05:30N 33°46' W 118°13'  
2017-Oct-07 19:09N 33°45' W 118°13'1 7.5
2017-Oct-07 19:00N 33°44' W 118°13'2 3.9
2017-Oct-07 18:30N 33°46' W 118°13'0 0.0
2017-Oct-06 19:50N 33°46' W 118°13'1 3.9
2017-Oct-06 19:30N 33°45' W 118°13'3 5.4
2017-Oct-06 19:00N 33°44' W 118°16'2 3.0
2017-Oct-06 18:12N 33°44' W 118°13'1 5.5
2017-Oct-06 18:00N 33°45' W 118°13'1 0.2
2017-Oct-06 10:40N 33°46' W 118°13'1 4.9
2017-Oct-06 10:30N 33°45' W 118°13'3 5.5
2017-Oct-06 10:00N 33°44' W 118°10'0 0.1
2017-Oct-06 09:30N 33°44' W 118°10'0 0.0
2017-Oct-06 08:56N 33°44' W 118°10'2 5.5
2017-Oct-06 08:28N 33°45' W 118°13'1 0.2
2017-Oct-06 02:13N 33°46' W 118°13'2 6.0
2017-Oct-06 01:50N 33°44' W 118°12'0 1.1
2017-Oct-06 01:30N 33°44' W 118°13'2 3.7
2017-Oct-06 00:59N 33°46' W 118°13'  

Dump ship's entire track history